sensor_id;sensor_type;location;lat;lon;timestamp;P1;durP1;ratioP1;P2;durP2;ratioP2
76752;SDS011;65687;51.308;16.916;2023-07-20T00:01:41;5.30;;;2.40;;
76752;SDS011;65687;51.308;16.916;2023-07-20T00:06:45;3.50;;;2.40;;
76752;SDS011;65687;51.308;16.916;2023-07-20T00:11:50;3.20;;;2.10;;
76752;SDS011;65687;51.308;16.916;2023-07-20T00:16:54;4.70;;;2.50;;
76752;SDS011;65687;51.308;16.916;2023-07-20T00:21:59;3.30;;;2.30;;
76752;SDS011;65687;51.308;16.916;2023-07-20T00:27:01;3.90;;;2.60;;
76752;SDS011;65687;51.308;16.916;2023-07-20T00:32:04;4.40;;;1.90;;
76752;SDS011;65687;51.308;16.916;2023-07-20T00:37:06;4.50;;;2.50;;
76752;SDS011;65687;51.308;16.916;2023-07-20T00:42:07;6.30;;;2.60;;
76752;SDS011;65687;51.308;16.916;2023-07-20T00:47:09;4.70;;;2.30;;
76752;SDS011;65687;51.308;16.916;2023-07-20T00:52:11;4.10;;;2.50;;
76752;SDS011;65687;51.308;16.916;2023-07-20T00:57:15;4.80;;;2.60;;
76752;SDS011;65687;51.308;16.916;2023-07-20T01:02:18;4.30;;;2.90;;
76752;SDS011;65687;51.308;16.916;2023-07-20T01:12:33;4.00;;;2.90;;
76752;SDS011;65687;51.308;16.916;2023-07-20T01:17:43;3.60;;;2.70;;
76752;SDS011;65687;51.308;16.916;2023-07-20T01:38:20;3.80;;;2.80;;
76752;SDS011;65687;51.308;16.916;2023-07-20T01:43:23;5.40;;;3.30;;
76752;SDS011;65687;51.308;16.916;2023-07-20T01:48:25;4.60;;;2.90;;
76752;SDS011;65687;51.308;16.916;2023-07-20T01:53:26;4.30;;;3.00;;
76752;SDS011;65687;51.308;16.916;2023-07-20T01:58:28;4.20;;;3.20;;
76752;SDS011;65687;51.308;16.916;2023-07-20T02:03:30;4.30;;;2.90;;
76752;SDS011;65687;51.308;16.916;2023-07-20T02:08:31;5.10;;;3.00;;
76752;SDS011;65687;51.308;16.916;2023-07-20T02:13:33;3.50;;;2.90;;
76752;SDS011;65687;51.308;16.916;2023-07-20T02:18:34;4.60;;;3.00;;
76752;SDS011;65687;51.308;16.916;2023-07-20T02:23:38;4.70;;;3.20;;
76752;SDS011;65687;51.308;16.916;2023-07-20T02:28:39;5.80;;;3.40;;
76752;SDS011;65687;51.308;16.916;2023-07-20T02:33:41;5.40;;;3.20;;
76752;SDS011;65687;51.308;16.916;2023-07-20T02:38:42;4.20;;;3.00;;
76752;SDS011;65687;51.308;16.916;2023-07-20T02:43:43;4.10;;;3.00;;
76752;SDS011;65687;51.308;16.916;2023-07-20T02:48:45;6.00;;;3.30;;
76752;SDS011;65687;51.308;16.916;2023-07-20T02:53:46;4.70;;;3.60;;
76752;SDS011;65687;51.308;16.916;2023-07-20T02:58:48;4.60;;;3.70;;
76752;SDS011;65687;51.308;16.916;2023-07-20T03:03:49;5.00;;;3.40;;
76752;SDS011;65687;51.308;16.916;2023-07-20T03:08:51;5.40;;;3.30;;
76752;SDS011;65687;51.308;16.916;2023-07-20T03:13:54;5.40;;;3.40;;
76752;SDS011;65687;51.308;16.916;2023-07-20T03:18:55;4.50;;;3.50;;
76752;SDS011;65687;51.308;16.916;2023-07-20T03:23:57;5.20;;;3.60;;
76752;SDS011;65687;51.308;16.916;2023-07-20T03:28:58;4.90;;;3.60;;
76752;SDS011;65687;51.308;16.916;2023-07-20T03:34:00;5.40;;;3.50;;
76752;SDS011;65687;51.308;16.916;2023-07-20T03:39:02;4.80;;;3.70;;
76752;SDS011;65687;51.308;16.916;2023-07-20T03:44:04;4.60;;;3.40;;
76752;SDS011;65687;51.308;16.916;2023-07-20T03:49:05;4.40;;;3.40;;
76752;SDS011;65687;51.308;16.916;2023-07-20T03:54:07;4.60;;;3.60;;
76752;SDS011;65687;51.308;16.916;2023-07-20T03:59:09;5.80;;;3.70;;
76752;SDS011;65687;51.308;16.916;2023-07-20T04:04:10;6.00;;;3.10;;
76752;SDS011;65687;51.308;16.916;2023-07-20T04:09:12;6.00;;;3.80;;
76752;SDS011;65687;51.308;16.916;2023-07-20T04:14:14;5.40;;;3.80;;
76752;SDS011;65687;51.308;16.916;2023-07-20T04:19:15;8.00;;;4.10;;
76752;SDS011;65687;51.308;16.916;2023-07-20T04:24:19;5.20;;;3.90;;
76752;SDS011;65687;51.308;16.916;2023-07-20T04:29:20;5.80;;;3.80;;
76752;SDS011;65687;51.308;16.916;2023-07-20T04:34:22;6.10;;;4.50;;
76752;SDS011;65687;51.308;16.916;2023-07-20T04:39:23;6.20;;;4.50;;
76752;SDS011;65687;51.308;16.916;2023-07-20T04:44:25;6.10;;;4.10;;
76752;SDS011;65687;51.308;16.916;2023-07-20T04:49:27;5.70;;;3.60;;
76752;SDS011;65687;51.308;16.916;2023-07-20T04:54:28;6.40;;;4.40;;
76752;SDS011;65687;51.308;16.916;2023-07-20T04:59:29;6.30;;;4.80;;
76752;SDS011;65687;51.308;16.916;2023-07-20T05:04:31;5.10;;;4.20;;
76752;SDS011;65687;51.308;16.916;2023-07-20T05:09:32;6.10;;;4.10;;
76752;SDS011;65687;51.308;16.916;2023-07-20T05:14:34;5.80;;;3.80;;
76752;SDS011;65687;51.308;16.916;2023-07-20T05:19:36;6.80;;;4.00;;
76752;SDS011;65687;51.308;16.916;2023-07-20T05:24:37;5.60;;;4.10;;
76752;SDS011;65687;51.308;16.916;2023-07-20T05:29:43;4.90;;;4.00;;
76752;SDS011;65687;51.308;16.916;2023-07-20T05:34:45;6.10;;;4.70;;
76752;SDS011;65687;51.308;16.916;2023-07-20T05:39:47;6.40;;;4.40;;
76752;SDS011;65687;51.308;16.916;2023-07-20T05:44:49;6.20;;;5.50;;
76752;SDS011;65687;51.308;16.916;2023-07-20T05:49:51;5.80;;;4.70;;
76752;SDS011;65687;51.308;16.916;2023-07-20T05:54:52;8.70;;;5.00;;
76752;SDS011;65687;51.308;16.916;2023-07-20T05:59:54;6.50;;;5.40;;
76752;SDS011;65687;51.308;16.916;2023-07-20T06:04:55;5.70;;;4.80;;
76752;SDS011;65687;51.308;16.916;2023-07-20T06:09:57;5.90;;;4.50;;
76752;SDS011;65687;51.308;16.916;2023-07-20T06:15:02;5.80;;;4.20;;
76752;SDS011;65687;51.308;16.916;2023-07-20T06:20:05;7.80;;;5.10;;
76752;SDS011;65687;51.308;16.916;2023-07-20T06:25:08;7.40;;;4.70;;
76752;SDS011;65687;51.308;16.916;2023-07-20T06:30:10;5.50;;;4.20;;
76752;SDS011;65687;51.308;16.916;2023-07-20T06:35:13;8.70;;;4.70;;
76752;SDS011;65687;51.308;16.916;2023-07-20T06:40:15;6.90;;;4.90;;
76752;SDS011;65687;51.308;16.916;2023-07-20T06:45:16;9.70;;;5.00;;
76752;SDS011;65687;51.308;16.916;2023-07-20T06:50:18;6.30;;;4.20;;
76752;SDS011;65687;51.308;16.916;2023-07-20T06:55:19;5.40;;;3.60;;
76752;SDS011;65687;51.308;16.916;2023-07-20T07:00:21;7.90;;;4.70;;
76752;SDS011;65687;51.308;16.916;2023-07-20T07:05:23;6.20;;;4.30;;
76752;SDS011;65687;51.308;16.916;2023-07-20T07:10:24;5.10;;;4.00;;
76752;SDS011;65687;51.308;16.916;2023-07-20T07:15:26;7.10;;;4.20;;
76752;SDS011;65687;51.308;16.916;2023-07-20T07:20:27;4.90;;;3.80;;
76752;SDS011;65687;51.308;16.916;2023-07-20T07:25:29;4.60;;;3.50;;
76752;SDS011;65687;51.308;16.916;2023-07-20T07:30:31;5.40;;;3.90;;
76752;SDS011;65687;51.308;16.916;2023-07-20T07:35:32;5.60;;;3.70;;
76752;SDS011;65687;51.308;16.916;2023-07-20T07:40:34;6.10;;;3.90;;
76752;SDS011;65687;51.308;16.916;2023-07-20T07:45:35;5.50;;;3.60;;
76752;SDS011;65687;51.308;16.916;2023-07-20T07:50:40;5.50;;;3.40;;
76752;SDS011;65687;51.308;16.916;2023-07-20T07:55:41;6.40;;;3.80;;
76752;SDS011;65687;51.308;16.916;2023-07-20T08:00:43;6.40;;;3.50;;
76752;SDS011;65687;51.308;16.916;2023-07-20T08:05:45;4.60;;;3.60;;
76752;SDS011;65687;51.308;16.916;2023-07-20T08:10:46;4.10;;;3.20;;
76752;SDS011;65687;51.308;16.916;2023-07-20T08:15:49;5.60;;;3.10;;
76752;SDS011;65687;51.308;16.916;2023-07-20T08:20:52;4.00;;;2.50;;
76752;SDS011;65687;51.308;16.916;2023-07-20T08:25:54;3.90;;;2.80;;
76752;SDS011;65687;51.308;16.916;2023-07-20T08:30:55;3.10;;;2.60;;
76752;SDS011;65687;51.308;16.916;2023-07-20T08:40:59;2.80;;;2.40;;
76752;SDS011;65687;51.308;16.916;2023-07-20T08:46:02;3.20;;;2.70;;
76752;SDS011;65687;51.308;16.916;2023-07-20T08:51:05;3.00;;;2.60;;
76752;SDS011;65687;51.308;16.916;2023-07-20T08:56:07;3.90;;;2.80;;
76752;SDS011;65687;51.308;16.916;2023-07-20T09:01:12;3.60;;;2.90;;
76752;SDS011;65687;51.308;16.916;2023-07-20T09:06:13;4.50;;;3.10;;
76752;SDS011;65687;51.308;16.916;2023-07-20T09:11:15;3.20;;;2.60;;
76752;SDS011;65687;51.308;16.916;2023-07-20T09:16:16;3.70;;;2.50;;
76752;SDS011;65687;51.308;16.916;2023-07-20T09:21:18;4.20;;;2.50;;
76752;SDS011;65687;51.308;16.916;2023-07-20T09:31:22;2.50;;;1.90;;
76752;SDS011;65687;51.308;16.916;2023-07-20T09:36:28;3.30;;;2.00;;
76752;SDS011;65687;51.308;16.916;2023-07-20T09:41:39;3.10;;;2.10;;
76752;SDS011;65687;51.308;16.916;2023-07-20T09:46:49;2.30;;;2.00;;
76752;SDS011;65687;51.308;16.916;2023-07-20T09:51:52;3.20;;;1.70;;
76752;SDS011;65687;51.308;16.916;2023-07-20T09:56:56;2.90;;;1.90;;
76752;SDS011;65687;51.308;16.916;2023-07-20T10:01:58;2.10;;;1.70;;
76752;SDS011;65687;51.308;16.916;2023-07-20T10:07:05;2.70;;;1.80;;
76752;SDS011;65687;51.308;16.916;2023-07-20T10:12:11;2.80;;;1.90;;
76752;SDS011;65687;51.308;16.916;2023-07-20T10:17:13;2.60;;;1.80;;
76752;SDS011;65687;51.308;16.916;2023-07-20T10:22:19;1.80;;;1.40;;
76752;SDS011;65687;51.308;16.916;2023-07-20T10:27:26;2.40;;;1.80;;
76752;SDS011;65687;51.308;16.916;2023-07-20T10:32:28;2.30;;;1.80;;
76752;SDS011;65687;51.308;16.916;2023-07-20T10:42:57;2.00;;;1.60;;
76752;SDS011;65687;51.308;16.916;2023-07-20T10:48:17;4.90;;;1.70;;
76752;SDS011;65687;51.308;16.916;2023-07-20T10:58:22;2.40;;;1.50;;
76752;SDS011;65687;51.308;16.916;2023-07-20T11:03:37;3.40;;;1.80;;
76752;SDS011;65687;51.308;16.916;2023-07-20T11:08:41;2.80;;;1.70;;
76752;SDS011;65687;51.308;16.916;2023-07-20T11:14:05;2.00;;;1.50;;
76752;SDS011;65687;51.308;16.916;2023-07-20T11:19:13;2.70;;;1.40;;
76752;SDS011;65687;51.308;16.916;2023-07-20T11:24:33;2.20;;;1.40;;
76752;SDS011;65687;51.308;16.916;2023-07-20T11:29:35;1.80;;;1.60;;
76752;SDS011;65687;51.308;16.916;2023-07-20T11:34:39;2.50;;;1.50;;
76752;SDS011;65687;51.308;16.916;2023-07-20T11:39:40;1.80;;;1.40;;
76752;SDS011;65687;51.308;16.916;2023-07-20T11:49:44;2.70;;;1.40;;
76752;SDS011;65687;51.308;16.916;2023-07-20T11:54:50;1.90;;;1.60;;
76752;SDS011;65687;51.308;16.916;2023-07-20T11:59:56;2.20;;;1.70;;
76752;SDS011;65687;51.308;16.916;2023-07-20T12:05:00;2.30;;;1.60;;
76752;SDS011;65687;51.308;16.916;2023-07-20T12:15:25;2.00;;;1.60;;
76752;SDS011;65687;51.308;16.916;2023-07-20T12:20:34;1.60;;;1.40;;
76752;SDS011;65687;51.308;16.916;2023-07-20T12:25:45;1.70;;;1.10;;
76752;SDS011;65687;51.308;16.916;2023-07-20T12:30:48;1.70;;;1.50;;
76752;SDS011;65687;51.308;16.916;2023-07-20T12:35:57;2.00;;;1.60;;
76752;SDS011;65687;51.308;16.916;2023-07-20T12:41:03;2.10;;;1.80;;
76752;SDS011;65687;51.308;16.916;2023-07-20T12:46:04;2.50;;;1.90;;
76752;SDS011;65687;51.308;16.916;2023-07-20T12:51:07;2.10;;;1.90;;
76752;SDS011;65687;51.308;16.916;2023-07-20T12:56:09;2.50;;;1.80;;
76752;SDS011;65687;51.308;16.916;2023-07-20T13:01:11;2.30;;;2.10;;
76752;SDS011;65687;51.308;16.916;2023-07-20T13:06:13;2.20;;;1.80;;
76752;SDS011;65687;51.308;16.916;2023-07-20T13:11:14;2.70;;;1.70;;
76752;SDS011;65687;51.308;16.916;2023-07-20T13:21:18;2.90;;;2.40;;
76752;SDS011;65687;51.308;16.916;2023-07-20T13:26:24;2.30;;;2.00;;
76752;SDS011;65687;51.308;16.916;2023-07-20T13:31:25;2.60;;;2.20;;
76752;SDS011;65687;51.308;16.916;2023-07-20T13:41:29;3.10;;;2.00;;
76752;SDS011;65687;51.308;16.916;2023-07-20T13:46:30;2.30;;;1.90;;
76752;SDS011;65687;51.308;16.916;2023-07-20T13:56:33;2.30;;;2.00;;
76752;SDS011;65687;51.308;16.916;2023-07-20T14:01:35;2.50;;;2.20;;
76752;SDS011;65687;51.308;16.916;2023-07-20T14:06:37;2.60;;;2.20;;
76752;SDS011;65687;51.308;16.916;2023-07-20T14:11:38;3.40;;;2.50;;
76752;SDS011;65687;51.308;16.916;2023-07-20T14:16:40;2.30;;;2.10;;
76752;SDS011;65687;51.308;16.916;2023-07-20T14:21:42;3.30;;;2.50;;
76752;SDS011;65687;51.308;16.916;2023-07-20T14:26:44;2.70;;;2.30;;
76752;SDS011;65687;51.308;16.916;2023-07-20T14:31:46;2.50;;;2.00;;
76752;SDS011;65687;51.308;16.916;2023-07-20T14:36:52;2.20;;;1.90;;
76752;SDS011;65687;51.308;16.916;2023-07-20T14:41:55;3.30;;;2.10;;
76752;SDS011;65687;51.308;16.916;2023-07-20T14:46:57;2.20;;;2.00;;
76752;SDS011;65687;51.308;16.916;2023-07-20T14:51:58;3.00;;;2.00;;
76752;SDS011;65687;51.308;16.916;2023-07-20T14:57:00;2.50;;;2.20;;
76752;SDS011;65687;51.308;16.916;2023-07-20T15:02:02;2.20;;;1.90;;
76752;SDS011;65687;51.308;16.916;2023-07-20T15:07:03;2.10;;;1.80;;
76752;SDS011;65687;51.308;16.916;2023-07-20T15:12:06;2.20;;;1.90;;
76752;SDS011;65687;51.308;16.916;2023-07-20T15:17:09;2.70;;;2.30;;
76752;SDS011;65687;51.308;16.916;2023-07-20T15:22:11;3.00;;;2.20;;
76752;SDS011;65687;51.308;16.916;2023-07-20T15:32:14;2.40;;;2.00;;
76752;SDS011;65687;51.308;16.916;2023-07-20T15:37:17;2.20;;;1.80;;
76752;SDS011;65687;51.308;16.916;2023-07-20T15:47:21;2.00;;;1.70;;
76752;SDS011;65687;51.308;16.916;2023-07-20T15:52:22;2.40;;;2.00;;
76752;SDS011;65687;51.308;16.916;2023-07-20T15:57:24;2.30;;;1.70;;
76752;SDS011;65687;51.308;16.916;2023-07-20T16:07:27;2.70;;;2.20;;
76752;SDS011;65687;51.308;16.916;2023-07-20T16:12:29;2.50;;;2.10;;
76752;SDS011;65687;51.308;16.916;2023-07-20T16:17:32;2.20;;;1.80;;
76752;SDS011;65687;51.308;16.916;2023-07-20T16:27:35;3.40;;;2.00;;
76752;SDS011;65687;51.308;16.916;2023-07-20T16:32:37;3.70;;;3.40;;
76752;SDS011;65687;51.308;16.916;2023-07-20T16:37:39;2.70;;;2.00;;
76752;SDS011;65687;51.308;16.916;2023-07-20T16:42:41;2.40;;;2.20;;
76752;SDS011;65687;51.308;16.916;2023-07-20T16:47:43;16.30;;;9.90;;
76752;SDS011;65687;51.308;16.916;2023-07-20T16:52:45;3.00;;;2.20;;
76752;SDS011;65687;51.308;16.916;2023-07-20T16:57:46;2.80;;;1.80;;
76752;SDS011;65687;51.308;16.916;2023-07-20T17:02:48;2.90;;;1.50;;
76752;SDS011;65687;51.308;16.916;2023-07-20T17:07:51;2.70;;;1.60;;
76752;SDS011;65687;51.308;16.916;2023-07-20T17:12:56;3.10;;;1.90;;
76752;SDS011;65687;51.308;16.916;2023-07-20T17:17:57;2.00;;;1.60;;
76752;SDS011;65687;51.308;16.916;2023-07-20T17:33:03;3.40;;;1.70;;
76752;SDS011;65687;51.308;16.916;2023-07-20T17:43:06;2.10;;;1.60;;
76752;SDS011;65687;51.308;16.916;2023-07-20T17:48:08;3.20;;;1.50;;
76752;SDS011;65687;51.308;16.916;2023-07-20T17:53:10;2.70;;;1.80;;
76752;SDS011;65687;51.308;16.916;2023-07-20T17:58:12;2.40;;;1.70;;
76752;SDS011;65687;51.308;16.916;2023-07-20T18:03:14;3.60;;;1.80;;
76752;SDS011;65687;51.308;16.916;2023-07-20T18:13:17;4.20;;;1.90;;
76752;SDS011;65687;51.308;16.916;2023-07-20T18:18:19;2.00;;;1.70;;
76752;SDS011;65687;51.308;16.916;2023-07-20T18:23:20;1.80;;;1.60;;
76752;SDS011;65687;51.308;16.916;2023-07-20T18:28:22;2.80;;;1.60;;
76752;SDS011;65687;51.308;16.916;2023-07-20T18:33:23;2.20;;;1.70;;
76752;SDS011;65687;51.308;16.916;2023-07-20T18:38:26;2.20;;;1.60;;
76752;SDS011;65687;51.308;16.916;2023-07-20T18:43:28;2.10;;;1.40;;
76752;SDS011;65687;51.308;16.916;2023-07-20T18:48:30;2.20;;;1.30;;
76752;SDS011;65687;51.308;16.916;2023-07-20T18:53:31;1.90;;;1.50;;
76752;SDS011;65687;51.308;16.916;2023-07-20T18:58:33;3.20;;;1.60;;
76752;SDS011;65687;51.308;16.916;2023-07-20T19:03:35;2.00;;;1.50;;
76752;SDS011;65687;51.308;16.916;2023-07-20T19:08:36;2.10;;;1.50;;
76752;SDS011;65687;51.308;16.916;2023-07-20T19:13:38;1.90;;;1.60;;
76752;SDS011;65687;51.308;16.916;2023-07-20T19:18:39;1.70;;;1.30;;
76752;SDS011;65687;51.308;16.916;2023-07-20T19:23:41;2.20;;;1.30;;
76752;SDS011;65687;51.308;16.916;2023-07-20T19:33:44;1.80;;;1.40;;
76752;SDS011;65687;51.308;16.916;2023-07-20T19:38:46;2.10;;;1.40;;
76752;SDS011;65687;51.308;16.916;2023-07-20T19:43:48;3.00;;;1.70;;
76752;SDS011;65687;51.308;16.916;2023-07-20T19:48:50;2.30;;;1.50;;
76752;SDS011;65687;51.308;16.916;2023-07-20T19:53:51;2.10;;;1.40;;
76752;SDS011;65687;51.308;16.916;2023-07-20T19:58:53;2.50;;;1.50;;
76752;SDS011;65687;51.308;16.916;2023-07-20T20:03:54;2.90;;;1.70;;
76752;SDS011;65687;51.308;16.916;2023-07-20T20:08:57;2.70;;;1.40;;
76752;SDS011;65687;51.308;16.916;2023-07-20T20:13:59;2.90;;;1.70;;
76752;SDS011;65687;51.308;16.916;2023-07-20T20:19:00;2.00;;;1.50;;
76752;SDS011;65687;51.308;16.916;2023-07-20T20:24:02;1.80;;;1.50;;
76752;SDS011;65687;51.308;16.916;2023-07-20T20:29:03;2.30;;;1.40;;
76752;SDS011;65687;51.308;16.916;2023-07-20T20:34:05;2.50;;;1.50;;
76752;SDS011;65687;51.308;16.916;2023-07-20T20:39:06;2.20;;;1.40;;
76752;SDS011;65687;51.308;16.916;2023-07-20T20:44:08;1.70;;;1.20;;
76752;SDS011;65687;51.308;16.916;2023-07-20T20:49:10;2.20;;;1.50;;
76752;SDS011;65687;51.308;16.916;2023-07-20T20:54:11;1.90;;;1.40;;
76752;SDS011;65687;51.308;16.916;2023-07-20T20:59:13;2.10;;;1.50;;
76752;SDS011;65687;51.308;16.916;2023-07-20T21:04:15;2.20;;;1.60;;
76752;SDS011;65687;51.308;16.916;2023-07-20T21:09:16;1.80;;;1.40;;
76752;SDS011;65687;51.308;16.916;2023-07-20T21:19:19;2.40;;;1.30;;
76752;SDS011;65687;51.308;16.916;2023-07-20T21:24:22;3.60;;;1.90;;
76752;SDS011;65687;51.308;16.916;2023-07-20T21:29:24;2.80;;;1.60;;
76752;SDS011;65687;51.308;16.916;2023-07-20T21:34:25;2.40;;;1.60;;
76752;SDS011;65687;51.308;16.916;2023-07-20T21:39:27;2.10;;;1.70;;
76752;SDS011;65687;51.308;16.916;2023-07-20T21:44:28;3.30;;;1.60;;
76752;SDS011;65687;51.308;16.916;2023-07-20T21:49:30;3.90;;;2.10;;
76752;SDS011;65687;51.308;16.916;2023-07-20T21:54:32;2.30;;;1.70;;
76752;SDS011;65687;51.308;16.916;2023-07-20T21:59:34;3.50;;;2.20;;
76752;SDS011;65687;51.308;16.916;2023-07-20T22:04:35;2.60;;;1.70;;
76752;SDS011;65687;51.308;16.916;2023-07-20T22:14:40;3.50;;;2.00;;
76752;SDS011;65687;51.308;16.916;2023-07-20T22:19:43;2.60;;;1.90;;
76752;SDS011;65687;51.308;16.916;2023-07-20T22:29:46;2.30;;;1.90;;
76752;SDS011;65687;51.308;16.916;2023-07-20T22:34:48;2.90;;;2.00;;
76752;SDS011;65687;51.308;16.916;2023-07-20T22:39:49;3.00;;;2.10;;
76752;SDS011;65687;51.308;16.916;2023-07-20T22:44:51;2.10;;;1.70;;
76752;SDS011;65687;51.308;16.916;2023-07-20T22:49:55;2.60;;;2.20;;
76752;SDS011;65687;51.308;16.916;2023-07-20T22:54:56;3.00;;;1.80;;
76752;SDS011;65687;51.308;16.916;2023-07-20T22:59:58;3.00;;;2.40;;
76752;SDS011;65687;51.308;16.916;2023-07-20T23:05:01;2.70;;;2.00;;
76752;SDS011;65687;51.308;16.916;2023-07-20T23:10:03;3.20;;;2.10;;
76752;SDS011;65687;51.308;16.916;2023-07-20T23:20:07;3.60;;;2.20;;
76752;SDS011;65687;51.308;16.916;2023-07-20T23:25:23;2.80;;;2.10;;
76752;SDS011;65687;51.308;16.916;2023-07-20T23:30:25;2.90;;;2.40;;
76752;SDS011;65687;51.308;16.916;2023-07-20T23:35:28;2.60;;;1.90;;
76752;SDS011;65687;51.308;16.916;2023-07-20T23:40:30;3.50;;;2.30;;
76752;SDS011;65687;51.308;16.916;2023-07-20T23:45:31;3.50;;;2.60;;
76752;SDS011;65687;51.308;16.916;2023-07-20T23:50:33;25.00;;;4.20;;
76752;SDS011;65687;51.308;16.916;2023-07-20T23:55:34;4.10;;;2.20;;
